createdAt,value
2022-11-01T00:01:39.404Z,18.83
2022-11-01T00:04:08.647Z,18.50
2022-11-01T00:06:36.541Z,19.10
2022-11-01T00:09:06.991Z,20.50
2022-11-01T00:11:35.200Z,20.37
2022-11-01T00:14:03.691Z,19.40
2022-11-01T00:16:31.268Z,21.17
2022-11-01T00:18:58.916Z,21.53
2022-11-01T00:21:26.558Z,19.47
2022-11-01T00:23:54.211Z,22.23
2022-11-01T00:26:24.842Z,18.63
2022-11-01T00:28:53.713Z,19.50
2022-11-01T00:31:22.628Z,19.07
2022-11-01T00:33:50.326Z,21.13
2022-11-01T00:36:18.012Z,19.33
2022-11-01T00:38:45.654Z,18.03
2022-11-01T00:41:15.524Z,23.67
2022-11-01T00:43:44.531Z,20.03
2022-11-01T00:46:12.216Z,20.13
2022-11-01T00:48:39.868Z,20.70
2022-11-01T00:51:07.436Z,18.97
2022-11-01T00:53:35.318Z,18.87
2022-11-01T00:56:03.957Z,21.17
2022-11-01T00:58:31.903Z,19.97
2022-11-01T01:01:01.421Z,19.60
2022-11-01T01:03:29.041Z,20.30
2022-11-01T01:05:56.925Z,17.90
2022-11-01T01:08:25.139Z,16.60
2022-11-01T01:10:53.202Z,18.10
2022-11-01T01:13:21.609Z,19.80
2022-11-01T01:15:49.276Z,21.00
2022-11-01T01:18:18.492Z,22.00
2022-11-01T01:20:46.228Z,19.80
2022-11-01T01:23:13.766Z,21.40
2022-11-01T01:25:41.674Z,19.60
2022-11-01T01:28:09.251Z,17.90
2022-11-01T01:30:40.944Z,21.17
2022-11-01T01:33:08.687Z,19.80
2022-11-01T01:35:38.916Z,21.07
2022-11-01T01:38:07.200Z,21.70
2022-11-01T01:40:36.053Z,19.23
2022-11-01T01:43:03.765Z,19.63
2022-11-01T01:45:35.696Z,21.17
2022-11-01T01:48:12.130Z,20.83
2022-11-01T01:50:47.240Z,20.33
2022-11-01T01:53:20.217Z,20.07
2022-11-01T01:55:53.988Z,21.10
2022-11-01T01:58:27.185Z,22.17
2022-11-01T02:00:55.138Z,20.67
2022-11-01T02:03:26.803Z,19.83
2022-11-01T02:06:00.470Z,21.53
2022-11-01T02:08:28.700Z,21.47
2022-11-01T02:10:57.951Z,21.10
2022-11-01T02:13:25.539Z,22.13
2022-11-01T02:16:05.913Z,23.70
2022-11-01T02:18:41.154Z,20.07
2022-11-01T02:21:43.985Z,22.10
2022-11-01T02:24:44.851Z,19.47
2022-11-01T02:27:21.789Z,21.00
2022-11-01T02:30:13.367Z,20.50
2022-11-01T02:32:52.947Z,20.90
2022-11-01T02:35:28.084Z,19.90
2022-11-01T02:38:05.718Z,19.70
2022-11-01T02:40:42.051Z,20.10
2022-11-01T02:43:16.106Z,20.27
2022-11-01T02:45:48.047Z,20.53
2022-11-01T02:48:19.585Z,18.87
2022-11-01T02:50:50.432Z,22.07
2022-11-01T02:53:18.061Z,20.67
2022-11-01T02:55:45.707Z,19.80
2022-11-01T02:58:19.686Z,21.53
2022-11-01T03:00:47.495Z,19.87
2022-11-01T03:03:20.736Z,21.17
2022-11-01T03:05:56.178Z,21.27
2022-11-01T03:08:26.840Z,20.13
2022-11-01T03:11:07.463Z,20.67
2022-11-01T03:13:54.348Z,21.63
2022-11-01T03:16:31.777Z,23.23
2022-11-01T03:19:07.467Z,19.03
2022-11-01T03:21:40.396Z,20.13
2022-11-01T03:24:18.451Z,22.60
2022-11-01T03:26:47.813Z,21.17
2022-11-01T03:29:17.267Z,22.27
2022-11-01T03:31:46.743Z,20.90
2022-11-01T03:34:19.010Z,19.17
2022-11-01T03:36:50.948Z,21.80
2022-11-01T03:39:22.987Z,19.90
2022-11-01T03:41:52.813Z,21.90
2022-11-01T03:44:20.837Z,21.60
2022-11-01T03:46:48.602Z,21.13
2022-11-01T03:49:21.041Z,18.97
2022-11-01T03:51:49.351Z,21.70
2022-11-01T03:54:16.871Z,18.00
2022-11-01T03:56:44.485Z,19.63
2022-11-01T03:59:12.202Z,20.37
2022-11-01T04:01:39.886Z,18.50
2022-11-01T04:04:07.652Z,20.17
2022-11-01T04:06:36.650Z,20.30
2022-11-01T04:09:04.567Z,19.90
2022-11-01T04:11:32.319Z,19.33
2022-11-01T04:14:13.953Z,21.00
2022-11-01T04:16:58.885Z,19.87
2022-11-01T04:19:44.229Z,20.03
2022-11-01T04:22:19.288Z,19.27
2022-11-01T04:24:49.843Z,22.67
2022-11-01T04:27:17.503Z,19.10
2022-11-01T04:29:45.056Z,19.07
2022-11-01T04:32:12.639Z,21.53
2022-11-01T04:34:43.164Z,19.50
2022-11-01T04:37:12.066Z,20.90
2022-11-01T04:40:08.147Z,20.83
2022-11-01T04:42:36.231Z,20.10
2022-11-01T04:45:05.607Z,17.67
2022-11-01T04:47:33.560Z,21.57
2022-11-01T04:50:01.286Z,20.87
2022-11-01T04:52:29.131Z,20.27
2022-11-01T04:54:56.778Z,17.30
2022-11-01T04:57:25.681Z,21.23
2022-11-01T04:59:53.981Z,17.97
2022-11-01T05:02:22.693Z,20.23
2022-11-01T05:04:51.076Z,20.40
2022-11-01T05:07:18.686Z,17.47
2022-11-01T05:09:46.276Z,17.93
2022-11-01T05:12:13.814Z,17.57
2022-11-01T05:14:42.742Z,20.40
2022-11-01T05:17:10.293Z,16.40
2022-11-01T05:19:37.854Z,15.57
2022-11-01T05:22:05.765Z,16.63
2022-11-01T05:24:33.347Z,17.40
2022-11-01T05:27:01.471Z,18.83
2022-11-01T05:29:33.160Z,18.50
2022-11-01T05:32:02.514Z,18.70
2022-11-01T05:34:30.146Z,16.30
2022-11-01T05:36:57.781Z,19.57
2022-11-01T05:39:25.371Z,17.00
2022-11-01T05:41:53.836Z,18.57
2022-11-01T05:44:23.233Z,16.50
2022-11-01T05:46:50.837Z,16.97
2022-11-01T05:49:19.815Z,14.53
2022-11-01T05:51:47.436Z,15.00
2022-11-01T05:54:15.002Z,16.30
2022-11-01T05:56:42.647Z,15.27
2022-11-01T05:59:10.318Z,15.30
2022-11-01T06:01:38.033Z,14.80
2022-11-01T06:04:06.171Z,14.70
2022-11-01T06:06:35.275Z,11.47
2022-11-01T06:09:03.883Z,12.30
2022-11-01T06:11:31.603Z,10.80
2022-11-01T06:14:00.411Z,10.77
2022-11-01T06:16:28.466Z,9.90
2022-11-01T06:18:56.047Z,9.33
2022-11-01T06:21:27.571Z,10.90
2022-11-01T06:23:59.152Z,8.77
2022-11-01T06:26:27.114Z,9.10
2022-11-01T06:28:54.762Z,8.93
2022-11-01T06:31:22.568Z,8.47
2022-11-01T06:33:50.764Z,8.80
2022-11-01T06:36:18.329Z,7.40
2022-11-01T06:38:45.952Z,6.77
2022-11-01T06:41:15.505Z,9.70
2022-11-01T06:43:43.367Z,6.27
2022-11-01T06:46:11.413Z,7.17
2022-11-01T06:48:39.155Z,7.97
2022-11-01T06:51:07.172Z,6.43
2022-11-01T06:53:35.119Z,7.20
2022-11-01T06:56:02.904Z,7.13
2022-11-01T06:58:31.965Z,7.00
2022-11-01T07:01:02.131Z,6.50
2022-11-01T07:03:29.932Z,7.27
2022-11-01T07:06:00.969Z,6.77
2022-11-01T07:08:29.101Z,6.00
2022-11-01T07:10:56.942Z,6.80
2022-11-01T07:13:24.492Z,6.23
2022-11-01T07:15:53.738Z,5.50
2022-11-01T07:18:21.361Z,7.20
2022-11-01T07:20:48.976Z,6.63
2022-11-01T07:23:17.892Z,6.30
2022-11-01T07:25:45.804Z,6.20
2022-11-01T07:28:13.349Z,6.13
2022-11-01T07:30:41.297Z,6.20
2022-11-01T07:33:10.347Z,6.80
2022-11-01T07:35:38.431Z,5.93
2022-11-01T07:38:09.734Z,5.80
2022-11-01T07:40:40.854Z,6.47
2022-11-01T07:43:08.488Z,5.80
2022-11-01T07:45:36.709Z,6.13
2022-11-01T07:48:06.591Z,7.03
2022-11-01T07:50:35.581Z,5.80
2022-11-01T07:53:05.011Z,5.63
2022-11-01T07:55:32.974Z,5.00
2022-11-01T07:58:00.780Z,6.20
2022-11-01T08:00:29.027Z,5.30
2022-11-01T08:03:01.568Z,5.20
2022-11-01T08:05:29.896Z,5.77
2022-11-01T08:07:59.703Z,5.43
2022-11-01T08:10:28.181Z,5.20
2022-11-01T08:13:02.131Z,5.47
2022-11-01T08:15:30.219Z,5.03
2022-11-01T08:17:58.542Z,4.90
2022-11-01T08:20:27.357Z,5.30
2022-11-01T08:22:55.764Z,4.43
2022-11-01T08:25:25.222Z,4.10
2022-11-01T08:27:52.849Z,4.70
2022-11-01T08:30:22.767Z,5.20
2022-11-01T08:32:50.409Z,4.97
2022-11-01T08:35:18.284Z,5.10
2022-11-01T08:37:50.145Z,5.17
2022-11-01T08:40:18.293Z,4.90
2022-11-01T08:42:47.350Z,4.50
2022-11-01T08:45:15.975Z,5.17
2022-11-01T08:47:43.722Z,4.70
2022-11-01T08:50:13.680Z,4.97
2022-11-01T08:52:41.566Z,4.77
2022-11-01T08:55:10.414Z,4.90
2022-11-01T08:57:38.558Z,3.90
2022-11-01T09:00:10.608Z,4.43
2022-11-01T09:02:39.066Z,5.23
2022-11-01T09:05:07.615Z,5.03
2022-11-01T09:07:35.605Z,5.43
2022-11-01T09:10:03.248Z,4.73
2022-11-01T09:12:30.970Z,4.50
2022-11-01T09:14:58.836Z,4.80
2022-11-01T09:17:27.958Z,5.50
2022-11-01T09:19:55.923Z,4.53
2022-11-01T09:22:24.120Z,4.13
2022-11-01T09:24:51.850Z,5.50
2022-11-01T09:27:19.464Z,4.90
2022-11-01T09:29:49.508Z,4.87
2022-11-01T09:32:19.504Z,4.70
2022-11-01T09:34:49.030Z,4.50
2022-11-01T09:37:17.866Z,4.60
2022-11-01T09:39:45.707Z,4.70
2022-11-01T09:42:21.759Z,4.50
2022-11-01T09:44:53.676Z,4.30
2022-11-01T09:47:23.954Z,4.57
2022-11-01T09:50:01.923Z,4.50
2022-11-01T09:52:29.728Z,4.10
2022-11-01T09:54:58.600Z,5.17
2022-11-01T09:57:35.477Z,4.50
2022-11-01T10:00:07.784Z,3.97
2022-11-01T10:03:18.281Z,3.83
2022-11-01T10:05:58.765Z,4.93
2022-11-01T10:08:38.912Z,4.00
2022-11-01T10:11:34.999Z,5.10
2022-11-01T10:14:11.569Z,3.97
2022-11-01T10:16:42.213Z,4.30
2022-11-01T10:19:14.709Z,3.90
2022-11-01T10:21:48.646Z,3.93
2022-11-01T10:24:23.885Z,3.50
2022-11-01T10:26:57.312Z,3.63
2022-11-01T10:29:35.191Z,3.37
2022-11-01T10:35:01.549Z,3.07
2022-11-01T10:37:43.820Z,3.00
2022-11-01T10:40:26.413Z,3.37
2022-11-01T10:42:54.168Z,2.93
2022-11-01T10:45:23.144Z,2.13
2022-11-01T10:47:55.864Z,1.93
2022-11-01T10:50:29.953Z,1.80
2022-11-01T10:53:02.600Z,1.80
2022-11-01T10:55:36.381Z,2.33
2022-11-01T10:58:07.097Z,2.07
2022-11-01T11:00:38.145Z,1.80
2022-11-01T11:03:18.466Z,1.80
2022-11-01T11:05:47.463Z,1.90
2022-11-01T11:08:19.304Z,1.60
2022-11-01T11:10:48.122Z,2.03
2022-11-01T11:13:21.233Z,1.67
2022-11-01T11:15:53.057Z,1.10
2022-11-01T11:18:26.108Z,1.20
2022-11-01T11:20:58.673Z,1.20
2022-11-01T11:23:30.110Z,1.30
2022-11-01T11:26:06.365Z,1.10
2022-11-01T11:28:38.751Z,1.37
2022-11-01T11:31:15.293Z,1.07
2022-11-01T11:33:55.165Z,1.60
2022-11-01T11:36:32.702Z,1.30
2022-11-01T11:39:05.044Z,1.53
2022-11-01T11:41:36.705Z,1.30
2022-11-01T11:44:04.765Z,1.17
2022-11-01T11:46:32.805Z,2.80
2022-11-01T11:49:04.706Z,1.37
2022-11-01T11:51:35.849Z,1.40
2022-11-01T11:54:22.856Z,1.30
2022-11-01T11:56:53.604Z,1.03
2022-11-01T11:59:29.727Z,1.07
2022-11-01T12:02:00.657Z,1.30
2022-11-01T12:04:35.180Z,1.50
2022-11-01T12:07:02.780Z,1.33
2022-11-01T12:09:47.401Z,1.30
2022-11-01T12:12:20.899Z,1.30
2022-11-01T12:14:48.923Z,1.30
2022-11-01T12:17:32.875Z,1.20
2022-11-01T12:20:14.369Z,1.63
2022-11-01T12:22:46.802Z,1.80
2022-11-01T12:25:18.990Z,1.23
2022-11-01T12:27:54.686Z,1.57
2022-11-01T12:30:26.010Z,1.40
2022-11-01T12:32:55.878Z,1.30
2022-11-01T12:35:28.615Z,1.10
2022-11-01T12:38:18.408Z,2.20
2022-11-01T12:40:51.258Z,1.90
2022-11-01T12:43:23.376Z,1.40
2022-11-01T12:45:57.165Z,1.30
2022-11-01T12:48:29.972Z,1.30
2022-11-01T12:51:03.206Z,2.00
2022-11-01T12:53:35.838Z,1.80
2022-11-01T12:56:05.209Z,1.23
2022-11-01T12:58:35.367Z,1.70
2022-11-01T13:01:25.130Z,1.57
2022-11-01T13:04:08.341Z,1.30
2022-11-01T13:06:50.537Z,1.47
2022-11-01T13:09:26.786Z,1.40
2022-11-01T13:12:03.627Z,1.57
2022-11-01T13:14:44.502Z,1.30
2022-11-01T13:17:24.586Z,2.10
2022-11-01T13:20:05.418Z,1.40
2022-11-01T13:22:45.918Z,1.37
2022-11-01T13:25:20.414Z,1.57
2022-11-01T13:27:56.912Z,1.77
2022-11-01T13:30:25.076Z,1.60
2022-11-01T13:33:00.480Z,1.53
2022-11-01T13:35:49.068Z,1.90
2022-11-01T13:38:24.796Z,1.50
2022-11-01T13:41:00.049Z,1.40
2022-11-01T13:43:35.706Z,1.60
2022-11-01T13:46:35.422Z,2.10
2022-11-01T13:49:24.160Z,1.60
2022-11-01T13:51:57.964Z,2.07
2022-11-01T13:54:56.331Z,2.60
2022-11-01T13:57:26.659Z,2.53
2022-11-01T13:59:58.868Z,2.30
2022-11-01T14:02:51.195Z,2.17
2022-11-01T14:05:19.257Z,1.80
2022-11-01T14:08:13.585Z,2.30
2022-11-01T14:10:51.217Z,1.33
2022-11-01T14:13:31.557Z,1.67
2022-11-01T14:16:20.442Z,1.67
2022-11-01T14:19:20.735Z,1.90
2022-11-01T14:21:53.308Z,2.17
2022-11-01T14:24:34.896Z,2.20
2022-11-01T14:27:34.609Z,3.10
2022-11-01T14:30:03.448Z,2.40
2022-11-01T14:32:33.102Z,1.77
2022-11-01T14:35:14.090Z,2.27
2022-11-01T14:37:45.150Z,1.93
2022-11-01T14:40:29.637Z,2.40
2022-11-01T14:43:04.689Z,2.20
2022-11-01T14:45:35.306Z,2.10
2022-11-01T14:48:13.076Z,2.10
2022-11-01T14:50:48.337Z,2.00
2022-11-01T14:53:23.557Z,1.80
2022-11-01T14:56:05.627Z,1.90
2022-11-01T14:58:33.486Z,1.90
2022-11-01T15:01:05.500Z,1.20
2022-11-01T15:03:34.684Z,1.77
2022-11-01T15:06:02.344Z,3.00
2022-11-01T15:08:32.836Z,2.20
2022-11-01T15:11:03.379Z,2.30
2022-11-01T15:13:33.967Z,2.10
2022-11-01T15:16:15.459Z,1.37
2022-11-01T15:18:49.513Z,1.53
2022-11-01T15:21:22.105Z,2.00
2022-11-01T15:23:54.079Z,1.50
2022-11-01T15:26:24.712Z,1.50
2022-11-01T15:28:54.559Z,1.80
2022-11-01T15:31:22.800Z,1.63
2022-11-01T15:33:57.311Z,1.30
2022-11-01T15:36:29.473Z,1.63
2022-11-01T15:39:02.519Z,1.57
2022-11-01T15:41:31.996Z,2.37
2022-11-01T15:44:01.860Z,2.33
2022-11-01T15:46:33.927Z,2.03
2022-11-01T15:49:09.166Z,1.77
2022-11-01T15:51:41.576Z,1.63
2022-11-01T15:54:19.929Z,2.50
2022-11-01T15:56:53.125Z,2.00
2022-11-01T15:59:54.245Z,3.30
2022-11-01T16:02:28.852Z,1.60
2022-11-01T16:04:58.472Z,1.90
2022-11-01T16:10:25.040Z,2.30
2022-11-01T16:12:55.092Z,1.80
2022-11-01T16:15:25.503Z,2.30
2022-11-01T16:17:55.893Z,2.10
2022-11-01T16:20:31.558Z,2.07
2022-11-01T16:23:01.359Z,2.10
2022-11-01T16:25:30.634Z,2.47
2022-11-01T16:28:02.630Z,1.60
2022-11-01T16:30:49.055Z,1.90
2022-11-01T16:33:22.830Z,2.00
2022-11-01T16:35:54.629Z,2.20
2022-11-01T16:38:27.580Z,2.13
2022-11-01T16:40:58.053Z,2.20
2022-11-01T16:43:27.916Z,2.20
2022-11-01T16:45:56.006Z,2.30
2022-11-01T16:48:25.923Z,2.00
2022-11-01T16:50:57.209Z,2.40
2022-11-01T16:53:26.626Z,3.27
2022-11-01T16:56:01.493Z,2.27
2022-11-01T16:58:33.517Z,2.10
2022-11-01T17:01:01.685Z,2.07
2022-11-01T17:03:31.385Z,2.40
2022-11-01T17:06:00.349Z,2.20
2022-11-01T17:08:30.465Z,2.10
2022-11-01T17:10:58.091Z,2.70
2022-11-01T17:13:25.874Z,2.60
2022-11-01T17:15:53.683Z,2.30
2022-11-01T17:18:29.087Z,2.43
2022-11-01T17:20:59.762Z,2.63
2022-11-01T17:23:30.189Z,2.17
2022-11-01T17:25:58.007Z,2.50
2022-11-01T17:28:25.975Z,3.50
2022-11-01T17:30:54.558Z,2.93
2022-11-01T17:33:24.390Z,2.53
2022-11-01T17:35:52.095Z,2.83
2022-11-01T17:38:29.956Z,2.27
2022-11-01T17:40:59.832Z,2.50
2022-11-01T17:43:27.527Z,2.33
2022-11-01T17:45:55.733Z,2.10
2022-11-01T17:48:23.336Z,2.77
2022-11-01T17:50:50.995Z,2.40
2022-11-01T17:53:19.676Z,1.93
2022-11-01T17:55:47.875Z,2.03
2022-11-01T17:58:16.787Z,2.20
2022-11-01T18:00:44.396Z,2.60
2022-11-01T18:03:14.757Z,2.20
2022-11-01T18:05:42.515Z,2.93
2022-11-01T18:08:17.360Z,2.03
2022-11-01T18:10:54.891Z,2.87
2022-11-01T18:13:36.390Z,2.47
2022-11-01T18:16:09.238Z,3.40
2022-11-01T18:18:56.741Z,2.13
2022-11-01T18:21:31.605Z,3.20
2022-11-01T18:24:03.771Z,2.70
2022-11-01T18:26:31.376Z,3.50
2022-11-01T18:29:17.327Z,3.30
2022-11-01T18:31:48.283Z,2.93
2022-11-01T18:34:27.837Z,2.80
2022-11-01T18:37:02.365Z,6.57
2022-11-01T18:39:37.239Z,5.37
2022-11-01T18:42:07.495Z,6.30
2022-11-01T18:44:37.071Z,6.87
2022-11-01T18:47:12.762Z,6.13
2022-11-01T18:49:41.103Z,6.07
2022-11-01T18:52:16.752Z,4.70
2022-11-01T18:54:53.624Z,4.67
2022-11-01T18:57:24.880Z,3.50
2022-11-01T18:59:55.590Z,3.83
2022-11-01T19:02:27.972Z,4.03
2022-11-01T19:05:11.819Z,4.13
2022-11-01T19:08:09.172Z,4.07
2022-11-01T19:10:30.127Z,5.20
2022-11-01T19:12:58.378Z,5.27
2022-11-01T19:15:29.558Z,5.17
2022-11-01T19:18:00.284Z,4.10
2022-11-01T19:20:29.937Z,4.50
2022-11-01T19:23:03.054Z,5.10
2022-11-01T19:25:33.130Z,4.57
2022-11-01T19:28:03.965Z,5.87
2022-11-01T19:30:34.408Z,5.13
2022-11-01T19:33:16.022Z,5.53
2022-11-01T19:35:43.798Z,5.83
2022-11-01T19:38:15.862Z,5.17
2022-11-01T19:40:44.649Z,4.80
2022-11-01T19:43:15.126Z,5.93
2022-11-01T19:45:46.787Z,4.60
2022-11-01T19:48:16.893Z,4.10
2022-11-01T19:50:47.017Z,4.63
2022-11-01T19:53:20.603Z,3.83
2022-11-01T19:55:52.332Z,4.87
2022-11-01T19:58:35.772Z,3.63
2022-11-01T20:01:32.850Z,3.13
2022-11-01T20:04:03.232Z,2.70
2022-11-01T20:06:35.227Z,2.63
2022-11-01T20:09:10.041Z,3.37
2022-11-01T20:11:37.619Z,3.77
2022-11-01T20:14:06.042Z,3.50
2022-11-01T20:16:35.067Z,2.90
2022-11-01T20:19:03.356Z,2.63
2022-11-01T20:21:31.203Z,2.40
2022-11-01T20:24:00.023Z,2.20
2022-11-01T20:26:28.030Z,3.50
2022-11-01T20:28:58.668Z,2.90
2022-11-01T20:31:26.950Z,3.03
2022-11-01T20:33:56.146Z,3.80
2022-11-01T20:36:23.935Z,3.63
2022-11-01T20:38:51.596Z,3.93
2022-11-01T20:41:20.011Z,3.70
2022-11-01T20:43:50.619Z,4.13
2022-11-01T20:46:19.116Z,3.73
2022-11-01T20:48:46.827Z,3.50
2022-11-01T20:51:15.713Z,2.97
2022-11-01T20:53:43.351Z,2.47
2022-11-01T20:56:10.957Z,1.70
2022-11-01T20:58:40.744Z,1.63
2022-11-01T21:01:14.651Z,1.23
2022-11-01T21:03:43.402Z,1.37
2022-11-01T21:06:17.688Z,2.07
2022-11-01T21:08:47.920Z,2.23
2022-11-01T21:11:43.387Z,1.30
2022-11-01T21:14:16.492Z,3.13
2022-11-01T21:16:44.367Z,1.87
2022-11-01T21:19:18.734Z,1.37
2022-11-01T21:21:49.294Z,1.63
2022-11-01T21:24:32.033Z,1.57
2022-11-01T21:27:06.195Z,2.20
2022-11-01T21:29:33.884Z,1.30
2022-11-01T21:32:03.153Z,1.50
2022-11-01T21:34:32.262Z,1.47
2022-11-01T21:37:01.213Z,1.33
2022-11-01T21:39:32.723Z,1.67
2022-11-01T21:42:04.544Z,2.00
2022-11-01T21:44:39.397Z,2.03
2022-11-01T21:47:16.296Z,2.00
2022-11-01T21:49:44.080Z,2.10
2022-11-01T21:52:13.723Z,1.70
2022-11-01T21:54:42.484Z,1.90
2022-11-01T21:57:11.841Z,1.77
2022-11-01T21:59:39.769Z,1.20
2022-11-01T22:02:10.357Z,1.70
2022-11-01T22:04:41.171Z,1.30
2022-11-01T22:07:10.115Z,1.30
2022-11-01T22:09:39.331Z,2.10
2022-11-01T22:12:07.778Z,1.60
2022-11-01T22:14:35.499Z,1.90
2022-11-01T22:17:03.078Z,1.80
2022-11-01T22:19:30.801Z,1.90
2022-11-01T22:21:58.382Z,1.70
2022-11-01T22:24:26.040Z,2.17
2022-11-01T22:26:55.333Z,1.50
2022-11-01T22:29:22.889Z,1.40
2022-11-01T22:31:50.567Z,1.80
2022-11-01T22:34:18.201Z,2.63
2022-11-01T22:36:45.861Z,2.07
2022-11-01T22:39:18.038Z,1.50
2022-11-01T22:41:45.637Z,2.20
2022-11-01T22:44:17.517Z,1.30
2022-11-01T22:46:47.891Z,1.80
2022-11-01T22:49:20.374Z,1.47
2022-11-01T22:51:50.514Z,1.60
2022-11-01T22:54:33.730Z,1.40
2022-11-01T22:57:07.401Z,1.60
2022-11-01T22:59:39.844Z,1.87
2022-11-01T23:02:27.804Z,1.63
2022-11-01T23:05:02.347Z,1.30
2022-11-01T23:10:28.750Z,1.33
2022-11-01T23:13:31.572Z,1.53
2022-11-01T23:16:02.799Z,1.77
2022-11-01T23:18:33.686Z,1.57
2022-11-01T23:21:04.241Z,1.40
2022-11-01T23:23:32.124Z,1.70
2022-11-01T23:26:03.094Z,2.20
2022-11-01T23:28:34.890Z,1.40
2022-11-01T23:31:05.229Z,1.40
2022-11-01T23:33:36.980Z,1.67
2022-11-01T23:36:05.056Z,1.23
2022-11-01T23:38:39.132Z,1.40
2022-11-01T23:41:20.131Z,1.20
2022-11-01T23:43:47.765Z,1.40
2022-11-01T23:46:16.746Z,1.00
2022-11-01T23:48:44.814Z,1.80
2022-11-01T23:51:18.659Z,1.27
2022-11-01T23:53:49.839Z,1.70
2022-11-01T23:56:20.763Z,1.83
2022-11-01T23:58:54.261Z,1.53
